Time;durP1;ratioP1;P1;durP2;ratioP2;P2;SDS_P1;SDS_P2;PMS_P1;PMS_P2;Temp;Humidity;BMP_temperature;BMP_pressure;BME280_temperature;BME280_humidity;BME280_pressure;Samples;Min_cycle;Max_cycle;Signal;HPM_P1;HPM_P2
2022/12/24 00:01:11;;;;;;;;;;;;;;;13.73;46.50;98483.13;4510608;31;32916;-81
2022/12/24 00:03:38;;;;;;;;;;;;;;;13.42;47.15;98482.56;4512852;31;35013;-81
2022/12/24 00:06:06;;;;;;;;;;;;;;;13.71;46.59;98482.25;4511170;31;35298;-81
2022/12/24 00:08:34;;;;;;;;;;;;;;;13.87;46.14;98476.03;4503007;31;35486;-81
2022/12/24 00:11:01;;;;;;;;;;;;;;;14.09;45.60;98477.50;4499021;31;34302;-82
2022/12/24 00:13:28;;;;;;;;;;;;;;;13.91;45.98;98469.87;4509270;31;34342;-82
2022/12/24 00:15:55;;;;;;;;;;;;;;;14.09;45.70;98469.66;4511935;31;34097;-82
2022/12/24 00:18:23;;;;;;;;;;;;;;;14.07;45.78;98463.59;4503070;31;35309;-82
2022/12/24 00:20:50;;;;;;;;;;;;;;;14.20;45.49;98459.06;4508848;31;33701;-82
2022/12/24 00:23:18;;;;;;;;;;;;;;;14.26;45.40;98450.31;4499355;31;34955;-80
2022/12/24 00:25:46;;;;;;;;;;;;;;;14.14;45.55;98451.34;4501710;31;34225;-81
2022/12/24 00:28:13;;;;;;;;;;;;;;;14.19;45.30;98456.50;4512358;31;35049;-81
2022/12/24 00:30:40;;;;;;;;;;;;;;;13.95;45.96;98468.09;4514237;31;33649;-83
2022/12/24 00:33:08;;;;;;;;;;;;;;;13.73;46.40;98459.69;4515677;31;33833;-82
2022/12/24 00:35:36;;;;;;;;;;;;;;;14.17;45.62;98469.56;4509477;31;33629;-81
2022/12/24 00:38:03;;;;;;;;;;;;;;;14.08;45.73;98467.91;4509141;31;34156;-81
2022/12/24 00:40:31;;;;;;;;;;;;;;;14.28;45.41;98477.22;4499418;31;33725;-82
2022/12/24 00:42:58;;;;;;;;;;;;;;;14.14;45.64;98516.53;4500119;31;33444;-82
2022/12/24 00:45:28;;;;;;;;;;;;;;;14.18;45.76;98543.41;4507152;31;34736;-82
2022/12/24 00:47:55;;;;;;;;;;;;;;;14.32;45.43;98525.88;4515579;31;34507;-82
2022/12/24 00:50:23;;;;;;;;;;;;;;;14.47;45.23;98533.50;4489922;31;791823;-81
2022/12/24 00:52:50;;;;;;;;;;;;;;;14.53;45.23;98520.38;4515862;31;35077;-82
2022/12/24 00:55:17;;;;;;;;;;;;;;;14.36;45.69;98522.34;4512982;31;34744;-82
2022/12/24 00:57:44;;;;;;;;;;;;;;;14.25;46.03;98511.19;4498447;31;34660;-82
2022/12/24 01:00:12;;;;;;;;;;;;;;;14.40;45.72;98503.16;4500297;31;34270;-82
2022/12/24 01:02:39;;;;;;;;;;;;;;;14.31;45.85;98500.66;4475016;31;34062;-82
2022/12/24 01:05:09;;;;;;;;;;;;;;;14.60;45.20;98489.88;4491119;31;34377;-83
2022/12/24 01:07:36;;;;;;;;;;;;;;;14.41;45.46;98475.34;4495892;31;35250;-82
2022/12/24 01:10:05;;;;;;;;;;;;;;;14.31;45.70;98466.75;4508461;31;33748;-81
2022/12/24 01:12:32;;;;;;;;;;;;;;;14.51;45.35;98470.00;4500848;31;33736;-82
2022/12/24 01:14:59;;;;;;;;;;;;;;;14.40;45.54;98455.38;4501150;31;34363;-82
2022/12/24 01:17:26;;;;;;;;;;;;;;;14.55;45.31;98440.38;4491317;31;34080;-81
2022/12/24 01:19:56;;;;;;;;;;;;;;;14.65;45.06;98432.41;4498020;31;33141;-80
2022/12/24 01:22:23;;;;;;;;;;;;;;;14.59;45.02;98425.56;4502413;31;33535;-83
2022/12/24 01:24:51;;;;;;;;;;;;;;;13.97;46.19;98428.09;4499637;31;34443;-82
2022/12/24 01:27:19;;;;;;;;;;;;;;;14.17;45.95;98437.41;4496746;31;35125;-82
2022/12/24 01:29:46;;;;;;;;;;;;;;;14.20;46.01;98429.53;4495497;31;33827;-81
2022/12/24 01:32:14;;;;;;;;;;;;;;;14.27;45.98;98441.62;4494145;31;34092;-82
2022/12/24 01:34:41;;;;;;;;;;;;;;;13.54;47.62;98457.25;4489078;31;34397;-81
2022/12/24 01:37:08;;;;;;;;;;;;;;;13.69;47.54;98451.03;4494184;31;34496;-82
2022/12/24 01:39:36;;;;;;;;;;;;;;;13.85;47.58;98446.50;4490307;31;33515;-82
2022/12/24 01:45:16;;;;;;;;;;;;;;;13.58;48.45;98445.06;4503518;31;34477;-83
2022/12/24 01:47:43;;;;;;;;;;;;;;;13.53;48.80;98447.75;4494624;31;34210;-82
2022/12/24 01:50:12;;;;;;;;;;;;;;;13.39;49.30;98440.06;4496163;31;33424;-83
2022/12/24 01:52:39;;;;;;;;;;;;;;;13.37;49.67;98448.75;4505246;31;35162;-83
2022/12/24 01:55:08;;;;;;;;;;;;;;;13.19;50.28;98436.75;4506552;31;34285;-83
2022/12/24 01:57:41;;;;;;;;;;;;;;;13.74;48.96;98433.59;4514098;31;34401;-82
2022/12/24 02:00:09;;;;;;;;;;;;;;;13.89;48.58;98442.97;4515826;31;33445;-82
2022/12/24 02:02:39;;;;;;;;;;;;;;;13.95;48.01;98448.13;4509868;31;34261;-82
2022/12/24 02:05:08;;;;;;;;;;;;;;;14.25;47.39;98435.56;4500770;31;34445;-82
2022/12/24 02:07:35;;;;;;;;;;;;;;;14.34;47.13;98432.81;4499484;31;33962;-81
2022/12/24 02:10:03;;;;;;;;;;;;;;;14.26;46.79;98432.06;4498053;31;33622;-83
2022/12/24 02:12:31;;;;;;;;;;;;;;;14.33;46.71;98446.75;4507076;31;34966;-83
2022/12/24 02:14:59;;;;;;;;;;;;;;;13.61;48.19;98437.22;4505169;31;35177;-83
2022/12/24 02:17:28;;;;;;;;;;;;;;;14.09;47.36;98455.75;4514684;31;34220;-82
2022/12/24 02:20:15;;;;;;;;;;;;;;;13.56;48.36;98468.53;4512526;31;34488;-81
2022/12/24 02:22:42;;;;;;;;;;;;;;;13.48;48.65;98488.56;4499414;31;34474;-82
2022/12/24 02:25:09;;;;;;;;;;;;;;;13.10;50.10;98526.16;4499473;31;34393;-83
2022/12/24 02:27:41;;;;;;;;;;;;;;;13.63;49.09;98508.38;4499523;31;34463;-81
2022/12/24 02:30:09;;;;;;;;;;;;;;;13.60;49.16;98488.47;4500783;31;33793;-82
2022/12/24 02:32:42;;;;;;;;;;;;;;;13.54;49.44;98469.44;4514872;31;34426;-82
2022/12/24 02:35:10;;;;;;;;;;;;;;;13.82;48.62;98452.59;4515350;31;33695;-82
2022/12/24 02:37:39;;;;;;;;;;;;;;;13.92;48.24;98442.09;4513671;31;35120;-83
2022/12/24 02:40:17;;;;;;;;;;;;;;;13.97;48.08;98440.28;4508952;31;33804;-82
2022/12/24 02:42:46;;;;;;;;;;;;;;;13.87;48.33;98442.16;4500437;31;33918;-82
2022/12/24 02:45:14;;;;;;;;;;;;;;;13.45;49.68;98446.97;4500597;31;34373;-83
2022/12/24 02:47:41;;;;;;;;;;;;;;;13.91;48.41;98446.44;4507675;31;34354;-82
2022/12/24 02:50:10;;;;;;;;;;;;;;;14.06;47.97;98450.59;4506518;31;33620;-83
2022/12/24 02:52:40;;;;;;;;;;;;;;;13.98;48.00;98450.69;4511215;31;34159;-81
2022/12/24 02:55:37;;;;;;;;;;;;;;;14.33;47.28;98446.75;4510507;31;35168;-80
2022/12/24 02:58:16;;;;;;;;;;;;;;;14.12;47.40;98445.28;4499366;31;34320;-81
2022/12/24 03:00:43;;;;;;;;;;;;;;;14.20;47.33;98450.41;4514082;31;33386;-81
2022/12/24 03:03:15;;;;;;;;;;;;;;;14.51;46.60;98463.94;4514932;31;33718;-82
2022/12/24 03:05:50;;;;;;;;;;;;;;;14.23;46.67;98466.88;4512091;31;33935;-82
2022/12/24 03:08:26;;;;;;;;;;;;;;;14.45;46.32;98466.59;4512403;31;35193;-83
2022/12/24 03:10:56;;;;;;;;;;;;;;;14.58;46.06;98466.44;4509690;31;34464;-81
2022/12/24 03:13:25;;;;;;;;;;;;;;;14.56;45.96;98464.72;4500817;31;33992;-82
2022/12/24 03:15:52;;;;;;;;;;;;;;;14.23;46.15;98466.00;4499478;31;33749;-82
2022/12/24 03:18:21;;;;;;;;;;;;;;;14.47;45.89;98468.28;4502102;31;35309;-83
2022/12/24 03:20:53;;;;;;;;;;;;;;;14.50;45.82;98468.25;4508141;31;33627;-83
2022/12/24 03:23:21;;;;;;;;;;;;;;;14.29;46.07;98468.53;4512495;31;34960;-82
2022/12/24 03:25:48;;;;;;;;;;;;;;;13.77;47.38;98470.03;4506447;31;35322;-83
2022/12/24 03:28:15;;;;;;;;;;;;;;;13.16;49.48;98465.41;4508091;31;34354;-83
2022/12/24 03:30:44;;;;;;;;;;;;;;;12.96;50.48;98459.53;4504625;31;33621;-83
2022/12/24 03:33:12;;;;;;;;;;;;;;;12.39;51.85;98470.31;4513646;31;33861;-83
2022/12/24 03:35:39;;;;;;;;;;;;;;;13.05;50.31;98462.91;4503713;31;34222;-82
2022/12/24 03:38:06;;;;;;;;;;;;;;;13.45;49.70;98462.59;4506057;31;35033;-83
2022/12/24 03:40:33;;;;;;;;;;;;;;;13.93;48.43;98467.25;4513356;31;33838;-83
2022/12/24 03:43:01;;;;;;;;;;;;;;;13.47;48.97;98468.63;4513909;31;35140;-82
2022/12/24 03:45:28;;;;;;;;;;;;;;;13.68;48.68;98482.31;4502959;31;34273;-82
2022/12/24 03:47:55;;;;;;;;;;;;;;;14.07;47.78;98471.41;4498881;31;34209;-82
2022/12/24 03:50:23;;;;;;;;;;;;;;;14.18;47.43;98470.44;4499012;31;33612;-83
2022/12/24 03:52:50;;;;;;;;;;;;;;;14.39;46.78;98490.97;4510530;31;35042;-82
2022/12/24 03:55:17;;;;;;;;;;;;;;;14.00;47.58;98490.63;4512421;31;33569;-81
2022/12/24 03:57:44;;;;;;;;;;;;;;;13.97;47.62;98495.84;4505365;31;35326;-82
2022/12/24 04:00:12;;;;;;;;;;;;;;;13.75;48.11;98496.97;4507123;31;33759;-82
2022/12/24 04:02:39;;;;;;;;;;;;;;;13.82;48.07;98501.25;4512798;31;34016;-81
2022/12/24 04:05:13;;;;;;;;;;;;;;;13.38;49.18;98497.38;4513503;31;34451;-82
2022/12/24 04:07:41;;;;;;;;;;;;;;;13.76;48.16;98496.12;4512404;31;35273;-82
2022/12/24 04:10:09;;;;;;;;;;;;;;;13.47;48.45;98502.47;4512112;31;33599;-82
2022/12/24 04:12:36;;;;;;;;;;;;;;;13.78;47.58;98494.34;4512849;31;35080;-81
2022/12/24 04:15:04;;;;;;;;;;;;;;;12.75;50.34;98494.34;4510758;31;35151;-83
2022/12/24 04:17:31;;;;;;;;;;;;;;;12.43;51.02;98502.38;4506018;31;35135;-82
2022/12/24 04:19:58;;;;;;;;;;;;;;;12.33;51.43;98507.59;4506231;31;33412;-82
2022/12/24 04:22:26;;;;;;;;;;;;;;;11.97;53.32;98524.22;4512007;31;34016;-81
2022/12/24 04:24:53;;;;;;;;;;;;;;;12.12;53.87;98525.88;4511956;31;33191;-83
2022/12/24 04:27:20;;;;;;;;;;;;;;;11.79;54.52;98514.69;4512590;31;34342;-83
2022/12/24 04:29:56;;;;;;;;;;;;;;;12.59;52.59;98517.84;4506265;31;32975;-82
2022/12/24 04:32:24;;;;;;;;;;;;;;;12.76;52.18;98516.88;4505827;31;33554;-82
2022/12/24 04:34:51;;;;;;;;;;;;;;;12.97;51.15;98516.75;4506835;31;33888;-82
2022/12/24 04:37:19;;;;;;;;;;;;;;;13.51;49.70;98514.59;4511080;31;34076;-83
2022/12/24 04:39:46;;;;;;;;;;;;;;;13.68;48.59;98503.16;4504617;31;34465;-81
2022/12/24 04:42:13;;;;;;;;;;;;;;;13.86;48.22;98510.75;4499875;31;34200;-81
2022/12/24 04:44:41;;;;;;;;;;;;;;;13.84;47.42;98508.16;4502844;31;34446;-82
2022/12/24 04:47:09;;;;;;;;;;;;;;;13.88;47.41;98509.00;4505519;31;34508;-82
2022/12/24 04:49:36;;;;;;;;;;;;;;;13.76;47.52;98515.22;4507436;31;34457;-81
2022/12/24 04:52:04;;;;;;;;;;;;;;;13.91;47.12;98513.31;4503739;31;35033;-82
2022/12/24 04:54:31;;;;;;;;;;;;;;;14.01;46.53;98512.31;4511492;31;34407;-82
2022/12/24 04:56:58;;;;;;;;;;;;;;;13.97;46.62;98506.28;4502295;31;33716;-83
2022/12/24 04:59:26;;;;;;;;;;;;;;;14.00;46.29;98508.84;4511743;31;34229;-82
2022/12/24 05:01:53;;;;;;;;;;;;;;;14.02;46.22;98514.94;4513641;31;34549;-81
2022/12/24 05:04:20;;;;;;;;;;;;;;;14.34;45.43;98511.06;4503496;31;34005;-82
2022/12/24 05:06:48;;;;;;;;;;;;;;;14.17;45.63;98510.38;4499815;31;34453;-82
2022/12/24 05:09:15;;;;;;;;;;;;;;;14.20;45.58;98502.53;4498823;31;34675;-82
2022/12/24 05:11:42;;;;;;;;;;;;;;;14.35;45.06;98516.25;4504414;31;34867;-82
2022/12/24 05:14:10;;;;;;;;;;;;;;;14.45;44.82;98506.56;4500503;31;34183;-82
2022/12/24 05:16:37;;;;;;;;;;;;;;;14.52;44.65;98513.47;4514928;31;34970;-82
2022/12/24 05:19:04;;;;;;;;;;;;;;;14.40;44.68;98513.59;4513865;31;34418;-82
2022/12/24 05:21:32;;;;;;;;;;;;;;;14.35;44.69;98520.59;4499555;31;34375;-82
2022/12/24 05:26:49;;;;;;;;;;;;;;;14.06;45.15;98518.38;4505643;31;34447;-82
2022/12/24 05:29:16;;;;;;;;;;;;;;;13.87;45.51;98536.81;4504606;31;33982;-82
2022/12/24 05:31:43;;;;;;;;;;;;;;;14.00;45.44;98540.13;4511766;31;33914;-82
2022/12/24 05:34:12;;;;;;;;;;;;;;;13.88;45.71;98535.91;4509279;31;34655;-83
2022/12/24 05:36:39;;;;;;;;;;;;;;;14.21;45.06;98543.38;4511735;31;34169;-82
2022/12/24 05:39:06;;;;;;;;;;;;;;;13.91;45.54;98550.66;4499156;31;34618;-81
2022/12/24 05:41:41;;;;;;;;;;;;;;;14.15;45.13;98538.25;4507466;31;34081;-83
2022/12/24 05:44:08;;;;;;;;;;;;;;;14.18;45.10;98543.41;4511827;31;35284;-82
2022/12/24 05:46:36;;;;;;;;;;;;;;;13.87;45.74;98548.97;4501988;31;33828;-83
2022/12/24 05:49:04;;;;;;;;;;;;;;;14.18;45.18;98533.84;4504716;31;33835;-82
2022/12/24 05:51:31;;;;;;;;;;;;;;;14.29;44.92;98520.69;4513583;31;33923;-82
2022/12/24 05:54:00;;;;;;;;;;;;;;;14.44;44.51;98517.03;4502524;31;34530;-81
2022/12/24 05:56:27;;;;;;;;;;;;;;;14.13;44.86;98530.44;4512691;31;34157;-83
2022/12/24 05:58:55;;;;;;;;;;;;;;;14.10;45.12;98535.69;4513901;31;33497;-82
2022/12/24 06:01:22;;;;;;;;;;;;;;;14.22;44.87;98519.91;4513478;31;34975;-83
2022/12/24 06:03:50;;;;;;;;;;;;;;;14.42;44.38;98540.50;4511337;31;34535;-82
2022/12/24 06:06:19;;;;;;;;;;;;;;;14.18;44.72;98543.41;4509136;31;34562;-82
2022/12/24 06:08:49;;;;;;;;;;;;;;;14.12;44.86;98553.03;4514696;31;34299;-82
2022/12/24 06:11:19;;;;;;;;;;;;;;;14.28;44.48;98550.22;4507128;31;34074;-81
2022/12/24 06:13:46;;;;;;;;;;;;;;;14.29;44.42;98541.56;4507033;31;33883;-81
2022/12/24 06:16:15;;;;;;;;;;;;;;;14.18;44.40;98544.28;4500310;31;35054;-82
2022/12/24 06:18:42;;;;;;;;;;;;;;;14.17;44.66;98544.28;4507783;31;33517;-82
2022/12/24 06:21:09;;;;;;;;;;;;;;;13.89;45.41;98557.62;4508118;31;34624;-82
2022/12/24 06:23:38;;;;;;;;;;;;;;;13.89;45.42;98555.00;4503292;31;33936;-82
2022/12/24 06:26:06;;;;;;;;;;;;;;;13.71;46.12;98550.00;4510818;31;35237;-81
2022/12/24 06:28:34;;;;;;;;;;;;;;;13.96;45.61;98550.63;4502764;31;33334;-82
2022/12/24 06:31:02;;;;;;;;;;;;;;;13.74;46.15;98553.44;4510525;31;34111;-82
2022/12/24 06:33:30;;;;;;;;;;;;;;;13.82;46.51;98550.75;4503329;31;34106;-82
2022/12/24 06:35:57;;;;;;;;;;;;;;;13.47;47.07;98551.94;4503154;31;35330;-83
2022/12/24 06:38:25;;;;;;;;;;;;;;;13.10;48.75;98565.22;4504463;31;33636;-81
2022/12/24 06:40:54;;;;;;;;;;;;;;;13.21;48.70;98567.75;4510977;31;34276;-82
2022/12/24 06:43:22;;;;;;;;;;;;;;;13.29;48.34;98576.37;4504897;31;34004;-81
2022/12/24 06:45:49;;;;;;;;;;;;;;;13.56;47.91;98575.31;4504780;31;33828;-82
2022/12/24 06:48:16;;;;;;;;;;;;;;;13.37;48.54;98576.31;4509927;31;33302;-82
2022/12/24 06:50:44;;;;;;;;;;;;;;;13.13;49.12;98588.63;4504541;31;34872;-83
2022/12/24 06:53:11;;;;;;;;;;;;;;;13.13;49.40;98596.41;4500389;31;34289;-82
2022/12/24 06:55:38;;;;;;;;;;;;;;;13.10;49.78;98591.22;4507173;31;34216;-82
2022/12/24 06:58:06;;;;;;;;;;;;;;;13.31;49.38;98589.41;4509896;31;33801;-82
2022/12/24 07:00:33;;;;;;;;;;;;;;;12.66;52.69;98588.91;4513507;31;34890;-83
2022/12/24 07:03:00;;;;;;;;;;;;;;;13.14;52.53;98603.38;4509159;31;35124;-82
2022/12/24 07:05:28;;;;;;;;;;;;;;;12.20;57.16;98599.50;4513471;31;34276;-81
2022/12/24 07:07:55;;;;;;;;;;;;;;;12.72;56.43;98601.00;4498558;31;34247;-80
2022/12/24 07:10:23;;;;;;;;;;;;;;;12.49;56.96;98596.78;4498435;31;34871;-82
2022/12/24 07:12:50;;;;;;;;;;;;;;;12.61;57.46;98604.53;4505365;31;34579;-83
2022/12/24 07:15:18;;;;;;;;;;;;;;;12.96;56.61;98598.28;4514067;31;34882;-82
2022/12/24 07:17:45;;;;;;;;;;;;;;;13.00;56.68;98602.59;4513213;31;33171;-83
2022/12/24 07:20:13;;;;;;;;;;;;;;;12.06;60.57;98604.72;4500849;31;34724;-81
2022/12/24 07:22:41;;;;;;;;;;;;;;;12.21;60.12;98602.94;4499393;31;33885;-82
2022/12/24 07:25:09;;;;;;;;;;;;;;;12.61;58.43;98606.25;4507227;31;34303;-82
2022/12/24 07:27:36;;;;;;;;;;;;;;;12.64;58.33;98590.63;4513673;31;33465;-83
2022/12/24 07:30:04;;;;;;;;;;;;;;;12.61;58.73;98601.94;4509243;31;33774;-82
2022/12/24 07:32:31;;;;;;;;;;;;;;;13.34;56.20;98605.00;4513994;31;34740;-82
2022/12/24 07:34:58;;;;;;;;;;;;;;;13.39;56.21;98609.28;4502634;31;35122;-82
2022/12/24 07:37:26;;;;;;;;;;;;;;;12.84;58.16;98613.94;4504880;31;32539;-81
2022/12/24 07:39:53;;;;;;;;;;;;;;;13.57;56.30;98616.09;4506494;31;35280;-82
2022/12/24 07:42:20;;;;;;;;;;;;;;;13.68;55.30;98615.16;4513234;31;34379;-82
2022/12/24 07:44:48;;;;;;;;;;;;;;;14.13;54.43;98624.28;4509334;31;34095;-82
2022/12/24 07:47:15;;;;;;;;;;;;;;;13.36;56.50;98613.66;4514414;31;34359;-82
2022/12/24 07:49:43;;;;;;;;;;;;;;;12.99;58.48;98619.06;4499479;31;33787;-81
2022/12/24 07:52:10;;;;;;;;;;;;;;;14.03;55.37;98631.31;4511781;31;34045;-81
2022/12/24 07:54:37;;;;;;;;;;;;;;;13.95;55.43;98619.25;4506307;31;34643;-82
2022/12/24 07:57:05;;;;;;;;;;;;;;;14.39;54.49;98625.72;4502197;31;33556;-80
2022/12/24 07:59:32;;;;;;;;;;;;;;;13.86;55.95;98628.00;4511295;31;34305;-81
2022/12/24 08:01:59;;;;;;;;;;;;;;;13.38;57.57;98631.00;4512667;31;35254;-84
2022/12/24 08:04:30;;;;;;;;;;;;;;;13.07;58.31;98640.72;4510030;31;35807;-82
2022/12/24 08:06:57;;;;;;;;;;;;;;;14.20;55.32;98641.56;4502975;31;34115;-82
2022/12/24 08:09:24;;;;;;;;;;;;;;;14.48;54.39;98651.72;4513484;31;33390;-82
2022/12/24 08:11:51;;;;;;;;;;;;;;;14.48;54.01;98657.81;4506215;31;34034;-81
2022/12/24 08:14:18;;;;;;;;;;;;;;;13.57;57.14;98672.53;4508936;31;34739;-81
2022/12/24 08:16:46;;;;;;;;;;;;;;;14.39;54.59;98676.13;4502249;31;33819;-81
2022/12/24 08:19:14;;;;;;;;;;;;;;;14.51;54.34;98676.06;4500892;31;33692;-83
2022/12/24 08:21:41;;;;;;;;;;;;;;;13.97;56.01;98683.50;4509302;31;34190;-81
2022/12/24 08:24:09;;;;;;;;;;;;;;;14.36;54.64;98697.06;4499842;31;35189;-81
2022/12/24 08:26:36;;;;;;;;;;;;;;;13.36;57.69;98702.19;4507290;31;33390;-83
2022/12/24 08:29:03;;;;;;;;;;;;;;;13.80;56.27;98703.63;4505584;31;34863;-82
2022/12/24 08:31:35;;;;;;;;;;;;;;;13.00;58.30;98730.09;4508068;31;35247;-83
2022/12/24 08:34:03;;;;;;;;;;;;;;;13.02;57.75;98723.13;4495704;31;35256;-82
2022/12/24 08:36:30;;;;;;;;;;;;;;;12.99;57.97;98724.88;4504701;31;34505;-83
2022/12/24 08:38:58;;;;;;;;;;;;;;;13.35;56.66;98726.50;4515405;31;35032;-82
2022/12/24 08:41:25;;;;;;;;;;;;;;;13.60;56.03;98741.09;4503540;31;34285;-82
2022/12/24 08:43:53;;;;;;;;;;;;;;;13.79;55.13;98739.25;4499711;31;35074;-83
2022/12/24 08:46:20;;;;;;;;;;;;;;;13.28;56.86;98745.63;4500904;31;33526;-81
2022/12/24 08:48:47;;;;;;;;;;;;;;;13.80;55.26;98737.50;4507423;31;34097;-83
2022/12/24 08:51:15;;;;;;;;;;;;;;;13.17;57.28;98749.97;4504262;31;33889;-83
2022/12/24 08:53:42;;;;;;;;;;;;;;;12.56;59.14;98759.69;4497989;31;34408;-85
2022/12/24 08:56:09;;;;;;;;;;;;;;;14.00;54.64;98752.97;4496529;31;34161;-84
2022/12/24 08:58:37;;;;;;;;;;;;;;;13.56;55.62;98757.63;4499504;31;33985;-86
2022/12/24 09:01:11;;;;;;;;;;;;;;;14.20;54.00;98758.03;4509710;31;34733;-86
2022/12/24 09:03:39;;;;;;;;;;;;;;;14.20;53.50;98760.63;4511180;31;34275;-85
2022/12/24 09:06:08;;;;;;;;;;;;;;;13.86;55.16;98768.69;4514613;31;34278;-86
2022/12/24 09:08:35;;;;;;;;;;;;;;;14.45;53.10;98767.38;4502891;31;34622;-86
2022/12/24 09:11:07;;;;;;;;;;;;;;;13.59;55.43;98775.81;4508210;31;34256;-88
2022/12/24 09:13:34;;;;;;;;;;;;;;;14.08;54.71;98782.44;4503923;31;34591;-85
2022/12/24 09:16:01;;;;;;;;;;;;;;;14.08;54.36;98778.09;4514388;31;34409;-85
2022/12/24 09:18:29;;;;;;;;;;;;;;;13.92;53.98;98794.72;4507962;31;35567;-85
2022/12/24 09:21:03;;;;;;;;;;;;;;;14.45;52.46;98790.84;4505013;31;34603;-84
2022/12/24 09:23:32;;;;;;;;;;;;;;;13.37;55.76;98788.09;4505610;31;34669;-85
2022/12/24 09:25:59;;;;;;;;;;;;;;;14.20;53.25;98791.91;4508912;31;34175;-86
2022/12/24 09:28:27;;;;;;;;;;;;;;;14.29;53.10;98791.88;4503719;31;34857;-86
2022/12/24 09:30:58;;;;;;;;;;;;;;;14.14;53.33;98786.78;4507665;31;34514;-85
2022/12/24 09:33:27;;;;;;;;;;;;;;;13.77;54.46;98794.84;4506226;31;34556;-86
2022/12/24 09:35:54;;;;;;;;;;;;;;;12.89;56.60;98805.59;4502558;31;33765;-88
2022/12/24 09:38:22;;;;;;;;;;;;;;;13.47;55.46;98793.25;4508834;31;33905;-84
2022/12/24 09:40:49;;;;;;;;;;;;;;;13.79;54.66;98801.78;4508108;31;34108;-84
2022/12/24 09:43:18;;;;;;;;;;;;;;;13.63;55.34;98798.38;4505561;31;34889;-86
2022/12/24 09:45:54;;;;;;;;;;;;;;;13.75;54.95;98799.16;4508302;31;33673;-86
2022/12/24 09:48:23;;;;;;;;;;;;;;;13.99;54.30;98787.75;4506707;31;33996;-86
2022/12/24 09:50:52;;;;;;;;;;;;;;;13.92;54.34;98792.13;4506511;31;34276;-87
2022/12/24 09:53:34;;;;;;;;;;;;;;;13.83;54.34;98787.84;4511729;31;35264;-87
2022/12/24 09:56:03;;;;;;;;;;;;;;;14.03;54.08;98789.44;4511379;31;34550;-85
2022/12/24 09:58:34;;;;;;;;;;;;;;;14.48;52.34;98783.00;4502255;31;34140;-86
2022/12/24 10:01:02;;;;;;;;;;;;;;;13.83;54.51;98808.69;4503045;31;34175;-87
2022/12/24 10:03:31;;;;;;;;;;;;;;;14.02;53.38;98814.66;4502342;31;34271;-87
2022/12/24 10:06:06;;;;;;;;;;;;;;;14.54;52.49;98816.00;4507396;31;33768;-88
2022/12/24 10:08:34;;;;;;;;;;;;;;;14.62;52.48;98826.38;4512056;31;32614;-87
2022/12/24 10:11:19;;;;;;;;;;;;;;;13.06;56.31;98839.34;4509816;31;33923;-85
2022/12/24 10:14:05;;;;;;;;;;;;;;;14.09;54.22;98826.78;4502020;31;34588;-87
2022/12/24 10:16:50;;;;;;;;;;;;;;;14.11;54.88;98824.16;4513545;31;33521;-87
2022/12/24 10:19:24;;;;;;;;;;;;;;;13.69;56.13;98823.53;4510852;31;34112;-87
2022/12/24 10:21:55;;;;;;;;;;;;;;;15.09;51.34;98815.47;4504650;31;34093;-86
2022/12/24 10:24:22;;;;;;;;;;;;;;;15.23;50.81;98828.38;4509478;31;35307;-85
2022/12/24 10:26:52;;;;;;;;;;;;;;;13.82;54.66;98834.75;4511270;31;34447;-87
2022/12/24 10:29:20;;;;;;;;;;;;;;;13.45;56.01;98842.75;4507265;31;33854;-84
2022/12/24 10:32:03;;;;;;;;;;;;;;;13.51;55.96;98842.72;4499327;31;34385;-87
2022/12/24 10:34:32;;;;;;;;;;;;;;;13.47;55.60;98855.75;4500991;31;35023;-87
2022/12/24 10:37:01;;;;;;;;;;;;;;;14.38;53.84;98837.84;4510640;31;33935;-87
2022/12/24 10:39:29;;;;;;;;;;;;;;;14.62;52.68;98847.25;4507025;31;34505;-86
2022/12/24 10:41:59;;;;;;;;;;;;;;;14.25;53.63;98847.53;4514325;31;34021;-88
2022/12/24 10:44:27;;;;;;;;;;;;;;;14.64;52.88;98851.56;4507081;31;34108;-85
2022/12/24 10:46:55;;;;;;;;;;;;;;;14.53;53.58;98862.09;4507949;31;32917;-83
2022/12/24 10:49:41;;;;;;;;;;;;;;;14.05;54.34;98858.94;4514282;31;33376;-83
2022/12/24 10:52:12;;;;;;;;;;;;;;;15.31;51.48;98865.72;4514924;31;33518;-83
2022/12/24 10:54:58;;;;;;;;;;;;;;;15.10;51.61;98858.97;4513777;31;34505;-83
2022/12/24 10:57:26;;;;;;;;;;;;;;;14.82;51.99;98861.84;4513928;31;33450;-82
2022/12/24 10:59:54;;;;;;;;;;;;;;;14.79;52.11;98850.59;4514016;31;35045;-85
2022/12/24 11:02:31;;;;;;;;;;;;;;;15.21;50.11;98849.28;4509128;31;35323;-84
2022/12/24 11:05:00;;;;;;;;;;;;;;;15.76;48.63;98853.03;4500568;31;34157;-87
2022/12/24 11:07:28;;;;;;;;;;;;;;;15.13;49.15;98851.09;4509865;31;33687;-86
2022/12/24 11:10:06;;;;;;;;;;;;;;;14.21;51.12;98851.03;4514598;31;34159;-85
2022/12/24 11:12:38;;;;;;;;;;;;;;;14.12;51.46;98865.81;4505460;31;34414;-85
2022/12/24 11:15:07;;;;;;;;;;;;;;;14.33;49.40;98856.16;4514650;31;34516;-85
2022/12/24 11:17:35;;;;;;;;;;;;;;;14.01;50.79;98867.63;4513930;31;34214;-95
2022/12/24 11:20:06;;;;;;;;;;;;;;;14.69;49.30;98865.44;4497541;31;34672;-91
2022/12/24 11:28:47;;;;;;;;;;;;;;;14.48;48.90;98876.91;4416807;32;32758;-94
2022/12/24 11:38:00;;;;;;;;;;;;;;;15.62;46.21;98881.03;4460567;32;34637;-89
2022/12/24 11:40:30;;;;;;;;;;;;;;;15.36;47.03;98883.94;4467767;32;33524;-89
2022/12/24 11:42:58;;;;;;;;;;;;;;;15.69;46.51;98885.34;4467482;32;34218;-90
2022/12/24 11:45:26;;;;;;;;;;;;;;;15.20;47.91;98878.03;4453056;32;34172;-87
2022/12/24 11:47:54;;;;;;;;;;;;;;;14.79;48.94;98881.91;4467187;32;35159;-83
2022/12/24 11:50:28;;;;;;;;;;;;;;;15.33;47.27;98890.91;4493941;31;33644;-88
2022/12/24 11:52:56;;;;;;;;;;;;;;;16.05;45.88;98891.81;4481680;32;33489;-85
2022/12/24 11:55:44;;;;;;;;;;;;;;;14.93;48.78;98893.09;4468251;32;34211;-86
2022/12/24 11:58:30;;;;;;;;;;;;;;;15.27;48.36;98895.37;4482056;31;35254;-87
2022/12/24 12:01:17;;;;;;;;;;;;;;;14.71;49.17;98895.00;4483094;32;33210;-91
2022/12/24 12:03:46;;;;;;;;;;;;;;;14.71;49.43;98889.78;4456167;32;34141;-92
2022/12/24 12:06:32;;;;;;;;;;;;;;;14.46;50.28;98891.69;4471646;32;33887;-90
2022/12/24 12:09:02;;;;;;;;;;;;;;;15.29;48.11;98901.41;4482471;32;35186;-88
2022/12/24 12:11:29;;;;;;;;;;;;;;;15.22;47.86;98898.00;4469861;32;33485;-91
2022/12/24 12:13:57;;;;;;;;;;;;;;;15.30;48.11;98901.44;4484843;32;33984;-89
2022/12/24 12:16:27;;;;;;;;;;;;;;;15.21;47.97;98904.13;4475790;31;32523;-90
2022/12/24 12:18:59;;;;;;;;;;;;;;;15.91;46.49;98904.19;4485438;31;34273;-89
2022/12/24 12:21:31;;;;;;;;;;;;;;;15.85;46.87;98894.72;4484755;32;33331;-87
2022/12/24 12:24:00;;;;;;;;;;;;;;;14.92;49.03;98901.78;4470206;32;34384;-90
2022/12/24 12:26:32;;;;;;;;;;;;;;;14.94;48.92;98907.84;4475866;31;34512;-90
2022/12/24 12:29:23;;;;;;;;;;;;;;;14.90;49.55;98902.69;4485824;31;34442;-88
2022/12/24 12:31:54;;;;;;;;;;;;;;;14.77;49.80;98901.91;4486111;31;34339;-90
2022/12/24 12:34:23;;;;;;;;;;;;;;;14.94;49.63;98907.84;4486026;31;35138;-88
2022/12/24 12:36:59;;;;;;;;;;;;;;;14.03;51.47;98910.22;4477841;32;33951;-89
2022/12/24 12:39:26;;;;;;;;;;;;;;;14.64;50.16;98929.00;4484438;32;35336;-86
2022/12/24 12:42:13;;;;;;;;;;;;;;;14.31;50.68;98925.69;4469852;32;33633;-90
2022/12/24 12:44:46;;;;;;;;;;;;;;;13.84;51.96;98934.63;4469545;32;33511;-89
2022/12/24 12:47:27;;;;;;;;;;;;;;;13.99;50.56;98934.56;4479796;31;35182;-88
2022/12/24 12:49:57;;;;;;;;;;;;;;;15.49;47.78;98936.06;4462126;32;34439;-88
2022/12/24 12:52:40;;;;;;;;;;;;;;;15.48;47.77;98942.13;4469886;32;32970;-86
2022/12/24 12:55:26;;;;;;;;;;;;;;;14.30;50.17;98944.81;4469643;32;33778;-88
2022/12/24 12:57:55;;;;;;;;;;;;;;;15.35;47.86;98940.56;4458675;32;33358;-89
2022/12/24 13:00:22;;;;;;;;;;;;;;;15.36;48.22;98941.41;4467205;32;33924;-90
2022/12/24 13:03:09;;;;;;;;;;;;;;;14.27;50.11;98960.47;4467202;32;33361;-87
2022/12/24 13:05:46;;;;;;;;;;;;;;;15.68;46.90;98949.81;4480399;32;32998;-87
2022/12/24 13:08:20;;;;;;;;;;;;;;;15.58;47.00;98946.38;4482967;32;33033;-87
2022/12/24 13:10:57;;;;;;;;;;;;;;;15.13;48.41;98946.84;4482956;32;34280;-89
2022/12/24 13:13:40;;;;;;;;;;;;;;;16.10;46.25;98958.03;4470048;32;33726;-88
2022/12/24 13:16:08;;;;;;;;;;;;;;;13.96;50.63;98980.63;4473838;31;34174;-86
2022/12/24 13:18:37;;;;;;;;;;;;;;;14.47;49.72;98979.50;4484082;31;35234;-87